createdAt,value
2022-11-19T08:51:13.352Z,100203.28
2022-11-19T08:53:39.774Z,100199.72
2022-11-19T08:56:06.374Z,100198.03
2022-11-19T08:58:32.775Z,100194.28
2022-11-19T09:00:59.439Z,100200.06
2022-11-19T09:03:25.990Z,100202.38
2022-11-19T09:05:53.349Z,100198.41
2022-11-19T09:08:19.704Z,100202.28
2022-11-19T09:10:46.032Z,100202.69
2022-11-19T09:13:12.392Z,100204.50
2022-11-19T09:15:40.017Z,100204.06
2022-11-19T09:18:06.531Z,100202.88
2022-11-19T09:20:32.898Z,100203.94
2022-11-19T09:22:59.266Z,100201.09
2022-11-19T09:25:25.675Z,100199.94
2022-11-19T09:27:51.994Z,100198.03
2022-11-19T09:30:18.332Z,100193.34
2022-11-19T09:32:44.584Z,100194.66
2022-11-19T09:35:10.852Z,100190.28
2022-11-19T09:37:37.085Z,100201.19
2022-11-19T09:40:04.679Z,100199.59
2022-11-19T09:42:30.980Z,100205.22
2022-11-19T09:44:57.281Z,100203.81
2022-11-19T09:47:23.529Z,100200.72
2022-11-19T09:49:49.747Z,100193.56
2022-11-19T09:52:16.133Z,100209.22
2022-11-19T09:54:42.359Z,100204.97
2022-11-19T09:57:08.588Z,100198.72
2022-11-19T09:59:34.910Z,100200.56
2022-11-19T10:02:01.143Z,100195.28
2022-11-19T10:04:27.537Z,100206.84
2022-11-19T10:06:53.769Z,100205.22
2022-11-19T10:09:19.979Z,100206.38
2022-11-19T10:11:46.190Z,100198.78
2022-11-19T10:14:12.561Z,100188.06
2022-11-19T10:16:38.962Z,100189.56
2022-11-19T10:19:05.244Z,100195.41
2022-11-19T10:21:31.605Z,100190.44
2022-11-19T10:24:00.750Z,100186.13
2022-11-19T10:26:26.986Z,100185.75
2022-11-19T10:28:53.188Z,100193.69
2022-11-19T10:31:19.406Z,100184.72
2022-11-19T10:33:45.660Z,100186.97
2022-11-19T10:36:11.953Z,100181.78
2022-11-19T10:38:38.296Z,100181.97
2022-11-19T10:41:04.570Z,100190.31
2022-11-19T10:43:30.806Z,100180.28
2022-11-19T10:46:00.083Z,100183.75
2022-11-19T10:48:26.372Z,100187.78
2022-11-19T10:50:52.617Z,100179.81
2022-11-19T10:56:18.957Z,100170.66
2022-11-19T10:58:45.245Z,100173.09
2022-11-19T11:01:11.844Z,100165.97
2022-11-19T11:03:38.167Z,100163.09
2022-11-19T11:06:06.310Z,100162.56
2022-11-19T11:08:32.548Z,100154.59
2022-11-19T11:10:58.796Z,100148.22
2022-11-19T11:13:54.429Z,100154.50
2022-11-19T11:16:20.638Z,100144.94
2022-11-19T11:18:47.051Z,100139.31
2022-11-19T11:21:13.323Z,100140.03
2022-11-19T11:23:39.932Z,100136.34
2022-11-19T11:26:06.249Z,100133.94
2022-11-19T11:28:32.511Z,100128.06
2022-11-19T11:30:58.757Z,100129.59
2022-11-19T11:33:25.051Z,100130.50
2022-11-19T11:35:51.326Z,100126.50
2022-11-19T11:38:17.743Z,100133.25
2022-11-19T11:40:44.087Z,100126.72
2022-11-19T11:43:10.367Z,100120.25
2022-11-19T11:45:36.599Z,100121.84
2022-11-19T11:48:02.973Z,100126.66
2022-11-19T11:50:29.228Z,100122.97
2022-11-19T11:52:55.469Z,100120.84
2022-11-19T11:55:21.719Z,100117.88
2022-11-19T11:57:47.978Z,100113.13
2022-11-19T12:00:14.198Z,100108.16
2022-11-19T12:02:40.652Z,100111.56
2022-11-19T12:05:06.904Z,100103.66
2022-11-19T12:07:33.194Z,100106.00
2022-11-19T12:10:03.523Z,100106.28
2022-11-19T12:12:29.800Z,100106.28
2022-11-19T12:14:56.024Z,100098.63
2022-11-19T12:17:22.280Z,100100.59
2022-11-19T12:19:48.511Z,100096.38
2022-11-19T12:22:14.851Z,100096.72
2022-11-19T12:24:41.079Z,100102.75
2022-11-19T12:27:07.330Z,100101.47
2022-11-19T12:29:33.568Z,100092.34
2022-11-19T12:31:59.799Z,100091.91
2022-11-19T12:34:26.028Z,100089.16
2022-11-19T12:36:56.691Z,100079.41
2022-11-19T12:39:23.083Z,100082.06
2022-11-19T12:41:49.356Z,100074.94
2022-11-19T12:44:15.596Z,100075.34
2022-11-19T12:46:41.959Z,100072.22
2022-11-19T12:49:08.557Z,100078.69
2022-11-19T12:51:35.889Z,100077.84
2022-11-19T12:54:02.252Z,100078.47
2022-11-19T12:56:28.494Z,100089.56
2022-11-19T12:58:54.966Z,100079.22
2022-11-19T13:01:21.291Z,100081.09
2022-11-19T13:03:47.637Z,100083.63
2022-11-19T13:06:17.822Z,100080.53
2022-11-19T13:08:44.392Z,100077.44
2022-11-19T13:11:12.413Z,100082.72
2022-11-19T13:13:38.772Z,100083.88
2022-11-19T13:16:05.063Z,100082.91
2022-11-19T13:18:31.324Z,100076.44
2022-11-19T13:20:57.585Z,100075.63
2022-11-19T13:23:23.833Z,100082.00
2022-11-19T13:25:50.118Z,100070.88
2022-11-19T13:28:16.414Z,100067.91
2022-11-19T13:30:42.693Z,100067.25
2022-11-19T13:33:09.080Z,100065.47
2022-11-19T13:35:35.365Z,100069.16
2022-11-19T13:38:01.650Z,100075.22
2022-11-19T13:40:27.917Z,100069.91
2022-11-19T13:43:31.645Z,100068.16
2022-11-19T13:45:59.000Z,100067.25
2022-11-19T13:48:25.370Z,100063.69
2022-11-19T13:50:52.662Z,100068.47
2022-11-19T13:53:19.061Z,100063.84
2022-11-19T13:55:45.287Z,100064.34
2022-11-19T13:58:11.568Z,100069.66
2022-11-19T14:00:37.903Z,100070.84
2022-11-19T14:03:04.278Z,100079.13
2022-11-19T14:05:30.554Z,100073.06
2022-11-19T14:07:57.043Z,100073.91
2022-11-19T14:10:23.630Z,100075.28
2022-11-19T14:12:49.917Z,100081.53
2022-11-19T14:31:37.733Z,100077.09
2022-11-19T14:34:04.414Z,100073.59
2022-11-19T14:36:30.942Z,100070.66
2022-11-19T14:38:57.318Z,100078.88
2022-11-19T15:29:47.792Z,100076.78
2022-11-19T15:45:36.649Z,100079.31
2022-11-19T16:04:18.639Z,100078.91
2022-11-19T16:17:49.575Z,100074.53
2022-11-19T16:20:25.012Z,100083.03
2022-11-19T16:22:52.034Z,100074.63
2022-11-19T16:35:52.619Z,100067.16
2022-11-19T16:38:28.508Z,100068.44
2022-11-19T16:52:08.562Z,100052.56
2022-11-19T16:54:39.273Z,100065.94
2022-11-19T16:59:37.642Z,100064.97
2022-11-19T17:36:45.100Z,100094.41
2022-11-19T17:39:11.623Z,100091.84
2022-11-19T17:44:24.953Z,100101.31
2022-11-19T17:46:51.370Z,100103.16
2022-11-19T17:49:22.476Z,100103.25
2022-11-19T17:51:48.949Z,100106.72
2022-11-19T17:54:15.350Z,100105.84
2022-11-19T17:56:55.290Z,100117.41
2022-11-19T17:59:44.019Z,100111.41
2022-11-19T18:08:26.916Z,100120.25
2022-11-19T18:10:53.348Z,100112.44
2022-11-19T18:16:01.302Z,100116.88
2022-11-19T18:18:27.742Z,100121.47
2022-11-19T18:21:02.181Z,100113.56
2022-11-19T18:23:29.411Z,100110.91
2022-11-19T18:25:57.407Z,100117.91
2022-11-19T18:28:24.271Z,100117.06
2022-11-19T18:30:52.535Z,100122.44
2022-11-19T18:33:19.996Z,100118.06
2022-11-19T18:35:48.870Z,100127.84
2022-11-19T18:38:17.934Z,100135.63
2022-11-19T18:43:43.626Z,100131.41
2022-11-19T18:46:13.038Z,100134.81
2022-11-19T18:48:41.010Z,100142.84
2022-11-19T18:51:07.461Z,100141.28
2022-11-19T18:53:33.880Z,100132.47
2022-11-19T18:56:00.735Z,100129.84
2022-11-19T18:58:30.161Z,100128.13
2022-11-19T19:00:57.910Z,100137.72
2022-11-19T19:03:24.350Z,100145.31
2022-11-19T19:05:51.096Z,100138.56
2022-11-19T19:08:17.374Z,100138.66
2022-11-19T19:10:43.667Z,100138.66
2022-11-19T19:13:09.956Z,100132.56
2022-11-19T19:15:36.268Z,100132.53
2022-11-19T19:18:07.754Z,100130.84
2022-11-19T19:20:36.880Z,100138.84
2022-11-19T19:23:03.626Z,100136.91
2022-11-19T19:25:29.934Z,100138.94
2022-11-19T19:27:56.231Z,100146.63
2022-11-19T19:30:22.496Z,100144.13
2022-11-19T19:32:48.877Z,100143.31
2022-11-19T19:35:18.205Z,100142.56
2022-11-19T19:37:45.070Z,100136.31
2022-11-19T19:40:11.415Z,100142.50
2022-11-19T19:42:41.230Z,100146.72
2022-11-19T19:45:07.937Z,100151.19
2022-11-19T19:47:34.236Z,100151.34
2022-11-19T19:50:00.480Z,100150.38
2022-11-19T19:52:26.747Z,100154.88
2022-11-19T19:54:53.137Z,100153.91
2022-11-19T19:57:19.403Z,100160.13
2022-11-19T19:59:45.690Z,100158.25
2022-11-19T20:02:12.091Z,100153.91
2022-11-19T20:04:38.360Z,100160.09
2022-11-19T20:07:04.651Z,100152.91
2022-11-19T20:09:30.912Z,100154.75
2022-11-19T20:11:57.195Z,100151.34
2022-11-19T20:14:23.478Z,100156.31
2022-11-19T20:16:50.513Z,100160.44
2022-11-19T20:19:16.885Z,100155.91
2022-11-19T20:21:47.206Z,100165.59
2022-11-19T20:24:14.142Z,100166.78
2022-11-19T20:26:44.010Z,100161.28
2022-11-19T20:29:10.451Z,100170.75
2022-11-19T20:31:39.872Z,100172.53
2022-11-19T20:34:09.361Z,100165.66
2022-11-19T20:36:35.653Z,100167.34
2022-11-19T20:39:02.127Z,100164.63
2022-11-19T20:41:47.275Z,100169.78
2022-11-19T20:44:27.496Z,100173.34
2022-11-19T20:46:54.915Z,100169.88
2022-11-19T20:49:21.774Z,100170.84
2022-11-19T20:51:50.615Z,100166.41
2022-11-19T20:54:19.999Z,100168.22
2022-11-19T20:56:46.573Z,100174.34
2022-11-19T20:59:12.933Z,100170.06
2022-11-19T21:01:41.793Z,100170.09
2022-11-19T21:04:08.657Z,100166.69
2022-11-19T21:06:37.895Z,100169.56
2022-11-19T21:09:04.302Z,100165.94
2022-11-19T21:11:33.097Z,100159.94
2022-11-19T21:13:59.689Z,100161.72
2022-11-19T21:16:29.046Z,100157.41
2022-11-19T21:18:55.515Z,100151.19
2022-11-19T21:21:24.394Z,100165.31
2022-11-19T21:23:50.791Z,100156.63
2022-11-19T21:26:17.273Z,100160.13
2022-11-19T21:28:46.177Z,100150.44
2022-11-19T21:31:14.947Z,100155.09
2022-11-19T21:36:18.863Z,100156.97
2022-11-19T21:38:47.645Z,100158.72
2022-11-19T21:41:17.004Z,100155.22
2022-11-19T21:43:43.383Z,100157.06
2022-11-19T21:48:55.848Z,100154.66
2022-11-19T21:51:24.889Z,100158.13
2022-11-19T21:53:51.911Z,100152.03
2022-11-19T21:56:19.145Z,100152.13
2022-11-19T21:58:45.708Z,100146.81
2022-11-19T22:01:12.309Z,100146.00
2022-11-19T22:03:38.726Z,100144.03
2022-11-19T22:06:05.127Z,100142.22
2022-11-19T22:08:31.508Z,100145.72
2022-11-19T22:10:58.181Z,100144.94
2022-11-19T22:13:29.390Z,100136.13
2022-11-19T22:15:59.520Z,100134.34
2022-11-19T22:18:28.264Z,100140.53
2022-11-19T22:20:57.545Z,100140.47
2022-11-19T22:26:13.173Z,100143.22
2022-11-19T22:28:39.588Z,100131.81
2022-11-19T22:31:05.921Z,100142.38
2022-11-19T22:33:35.171Z,100135.22
2022-11-19T22:36:09.267Z,100132.06
2022-11-19T22:38:38.192Z,100125.88
2022-11-19T22:41:07.525Z,100133.06
2022-11-19T22:43:36.700Z,100135.75
2022-11-19T22:54:03.328Z,100121.94
2022-11-19T22:56:29.838Z,100119.31
2022-11-19T22:58:56.183Z,100122.97
2022-11-19T23:01:22.653Z,100126.34
2022-11-19T23:03:49.149Z,100124.72
2022-11-19T23:06:19.029Z,100120.41
2022-11-19T23:08:45.610Z,100117.78
2022-11-19T23:11:12.053Z,100111.66
2022-11-19T23:13:39.162Z,100118.69
2022-11-19T23:16:05.933Z,100115.25
2022-11-19T23:18:35.726Z,100108.28
2022-11-19T23:21:02.240Z,100111.91
2022-11-19T23:23:31.019Z,100104.75
2022-11-19T23:25:59.801Z,100098.75
2022-11-19T23:28:28.701Z,100098.78
2022-11-19T23:30:55.024Z,100101.41
2022-11-19T23:33:24.249Z,100104.16
2022-11-19T23:35:50.599Z,100100.47
2022-11-19T23:38:19.775Z,100102.31
2022-11-19T23:40:49.048Z,100104.03
2022-11-19T23:45:59.141Z,100104.19
2022-11-19T23:48:25.938Z,100113.66
2022-11-19T23:50:52.562Z,100112.81
2022-11-19T23:53:20.833Z,100102.31
2022-11-19T23:58:15.140Z,100106.72
